aviador You're here:

LQTZ Decoded Metar

in _UNIDENTIFIED
Report Time2017-08-21 13:30:00
UTC Time2017-08-21 13:50:08
Flight Rules vfr VFR
Wind330° at 07 kt
W.Decomp.*RWY 27: 3.8 kt HW 5.9 kt RCW
W.Rank330° ranks 18
Current wind is above 330° avg. (5.5)
Visibility9999 m
Phenomena:N/A
Clouds:Scattered 045 Hf
Expected CloudBase > 5,200 ft AGL from Temp-Dew spread
CeilingNone
Temp22°C (ISA +9)
Dew Point09°C (44% RH)
AAT19.3°C
QNH1019 hPa
Density Alt2,008 ft
Elevation1,004 ft
Report Wrong Elevation
Raw Report
METAR LQTZ 211330Z 33007KT 290V010 9999 SCT045 22/09 Q1019=

Extra information for LQTZ:More info

Metar Taf Metar & Taf Last 4 Metars F.Rules Stats Wind Profile Meteogram Temp Stats Metar ALERT Operation Metar Decoded Social comments